Time,TemperatureF,DewpointF,PressureIn,WindDirection,WindDirectionDegrees,WindSpeedMPH,WindSpeedGustMPH,Humidity,HourlyPrecipIn,Conditions,Clouds,dailyrainin,SoftwareType,DateUTC
2013-02-13 00:05:00,39.8,-99.9,30.33,ENE,64,10.0,-999.0,0,-99.99,,,0.00,weatherlink.com 1.10,2013-02-13 08:05:00,
2013-02-13 00:20:00,40.0,-99.9,30.34,NE,50,7.0,-999.0,0,-99.99,,,0.00,weatherlink.com 1.10,2013-02-13 08:20:00,
2013-02-13 00:35:00,39.6,-99.9,30.33,ENE,71,6.0,-999.0,0,-99.99,,,0.00,weatherlink.com 1.10,2013-02-13 08:35:00,
2013-02-13 00:50:00,39.0,-99.9,30.33,ENE,69,9.0,-999.0,0,-99.99,,,0.00,weatherlink.com 1.10,2013-02-13 08:50:00,
2013-02-13 01:05:00,39.3,-99.9,30.32,NE,50,12.0,-999.0,0,-99.99,,,0.00,weatherlink.com 1.10,2013-02-13 09:05:00,
2013-02-13 01:20:00,39.2,-99.9,30.32,NE,53,12.0,-999.0,0,-99.99,,,0.00,weatherlink.com 1.10,2013-02-13 09:20:00,
2013-02-13 01:35:00,39.3,-99.9,30.32,ENE,67,11.0,-999.0,0,-99.99,,,0.00,weatherlink.com 1.10,2013-02-13 09:35:00,
2013-02-13 01:50:00,40.0,-99.9,30.32,NE,41,7.0,-999.0,0,-99.99,,,0.00,weatherlink.com 1.10,2013-02-13 09:50:00,
2013-02-13 02:05:00,39.3,-99.9,30.32,NE,44,9.0,-999.0,0,-99.99,,,0.00,weatherlink.com 1.10,2013-02-13 10:05:00,
2013-02-13 02:20:00,39.1,-99.9,30.32,NE,55,10.0,-999.0,0,-99.99,,,0.00,weatherlink.com 1.10,2013-02-13 10:20:00,
2013-02-13 02:35:00,38.8,-99.9,30.32,NE,40,7.0,-999.0,0,-99.99,,,0.00,weatherlink.com 1.10,2013-02-13 10:35:00,
2013-02-13 02:50:00,38.4,-99.9,30.32,ENE,78,6.0,-999.0,0,-99.99,,,0.00,weatherlink.com 1.10,2013-02-13 10:50:00,
2013-02-13 03:05:00,38.5,-99.9,30.32,ENE,66,7.0,-999.0,0,-99.99,,,0.00,weatherlink.com 1.10,2013-02-13 11:05:00,
2013-02-13 03:20:00,38.2,-99.9,30.31,ENE,62,12.0,-999.0,0,-99.99,,,0.00,weatherlink.com 1.10,2013-02-13 11:20:00,
2013-02-13 03:35:00,37.8,-99.9,30.31,ENE,58,10.0,-999.0,0,-99.99,,,0.00,weatherlink.com 1.10,2013-02-13 11:35:00,
2013-02-13 03:50:00,37.9,-99.9,30.31,ENE,62,10.0,-999.0,0,-99.99,,,0.00,weatherlink.com 1.10,2013-02-13 11:50:00,
2013-02-13 04:05:00,38.2,-99.9,30.30,NE,40,8.0,-999.0,0,-99.99,,,0.00,weatherlink.com 1.10,2013-02-13 12:05:00,
2013-02-13 04:20:00,37.6,-99.9,30.31,NE,55,10.0,-999.0,0,-99.99,,,0.00,weatherlink.com 1.10,2013-02-13 12:20:00,
2013-02-13 04:35:00,37.2,-99.9,30.31,NE,51,6.0,-999.0,0,-99.99,,,0.00,weatherlink.com 1.10,2013-02-13 12:35:00,
2013-02-13 04:50:00,37.5,-99.9,30.31,ENE,57,10.0,-999.0,0,-99.99,,,0.00,weatherlink.com 1.10,2013-02-13 12:50:00,
2013-02-13 05:05:00,37.3,-99.9,30.31,ENE,62,8.0,-999.0,0,-99.99,,,0.00,weatherlink.com 1.10,2013-02-13 13:05:00,
2013-02-13 05:20:00,36.8,-99.9,30.31,ENE,67,7.0,-999.0,0,-99.99,,,0.00,weatherlink.com 1.10,2013-02-13 13:20:00,
2013-02-13 05:35:00,37.1,-99.9,30.32,NE,46,11.0,-999.0,0,-99.99,,,0.00,weatherlink.com 1.10,2013-02-13 13:35:00,
2013-02-13 05:50:00,36.7,-99.9,30.31,ENE,57,12.0,-999.0,0,-99.99,,,0.00,weatherlink.com 1.10,2013-02-13 13:50:00,
2013-02-13 06:05:00,36.4,-99.9,30.30,NE,50,10.0,-999.0,0,-99.99,,,0.00,weatherlink.com 1.10,2013-02-13 14:05:00,
2013-02-13 06:20:00,37.1,-99.9,30.31,NNE,16,7.0,-999.0,0,-99.99,,,0.00,weatherlink.com 1.10,2013-02-13 14:20:00,
2013-02-13 06:35:00,37.6,-99.9,30.31,ENE,57,7.0,-999.0,0,-99.99,,,0.00,weatherlink.com 1.10,2013-02-13 14:35:00,
2013-02-13 06:50:00,36.9,-99.9,30.31,NE,54,9.0,-999.0,0,-99.99,,,0.00,weatherlink.com 1.10,2013-02-13 14:50:00,
2013-02-13 07:05:00,36.8,-99.9,30.32,NE,49,6.0,-999.0,0,-99.99,,,0.00,weatherlink.com 1.10,2013-02-13 15:05:00,
2013-02-13 07:20:00,36.5,-99.9,30.32,ENE,59,6.0,-999.0,0,-99.99,,,0.00,weatherlink.com 1.10,2013-02-13 15:20:00,
2013-02-13 07:35:00,36.9,-99.9,30.32,ENE,61,6.0,-999.0,0,-99.99,,,0.00,weatherlink.com 1.10,2013-02-13 15:35:00,
2013-02-13 07:50:00,37.1,-99.9,30.33,ENE,76,5.0,-999.0,0,-99.99,,,0.00,weatherlink.com 1.10,2013-02-13 15:50:00,
2013-02-13 08:05:00,37.4,-99.9,30.33,ENE,67,6.0,-999.0,0,-99.99,,,0.00,weatherlink.com 1.10,2013-02-13 16:05:00,
2013-02-13 08:20:00,38.3,-99.9,30.34,ENE,74,6.0,-999.0,0,-99.99,,,0.00,weatherlink.com 1.10,2013-02-13 16:20:00,
2013-02-13 08:35:00,38.4,-99.9,30.34,ENE,64,4.0,-999.0,0,-99.99,,,0.00,weatherlink.com 1.10,2013-02-13 16:35:00,
2013-02-13 08:50:00,39.2,-99.9,30.34,NE,51,10.0,-999.0,0,-99.99,,,0.00,weatherlink.com 1.10,2013-02-13 16:50:00,
2013-02-13 09:05:00,40.4,-99.9,30.34,NE,53,7.0,-999.0,0,-99.99,,,0.00,weatherlink.com 1.10,2013-02-13 17:05:00,
2013-02-13 09:20:00,42.0,-99.9,30.34,ENE,61,5.0,-999.0,0,-99.99,,,0.00,weatherlink.com 1.10,2013-02-13 17:20:00,
2013-02-13 09:35:00,43.8,-99.9,30.34,NE,53,3.0,-999.0,0,-99.99,,,0.00,weatherlink.com 1.10,2013-02-13 17:35:00,
2013-02-13 09:50:00,46.0,-99.9,30.34,NE,56,0.0,-999.0,0,-99.99,,,0.00,weatherlink.com 1.10,2013-02-13 17:50:00,
2013-02-13 10:05:00,48.2,-99.9,30.34,NE,56,0.0,-999.0,0,-99.99,,,0.00,weatherlink.com 1.10,2013-02-13 18:05:00,
2013-02-13 10:20:00,50.7,-99.9,30.34,WSW,239,0.0,-999.0,0,-99.99,,,0.00,weatherlink.com 1.10,2013-02-13 18:20:00,
2013-02-13 10:35:00,52.5,-99.9,30.35,WSW,248,0.0,-999.0,0,-99.99,,,0.00,weatherlink.com 1.10,2013-02-13 18:35:00,
2013-02-13 10:50:00,54.1,-99.9,30.34,WSW,254,0.0,-999.0,0,-99.99,,,0.00,weatherlink.com 1.10,2013-02-13 18:50:00,
2013-02-13 11:05:00,56.4,-99.9,30.34,SW,226,2.0,-999.0,0,-99.99,,,0.00,weatherlink.com 1.10,2013-02-13 19:05:00,
2013-02-13 11:20:00,57.2,-99.9,30.34,SW,236,4.0,-999.0,0,-99.99,,,0.00,weatherlink.com 1.10,2013-02-13 19:20:00,
2013-02-13 11:35:00,57.6,-99.9,30.34,SSW,202,0.0,-999.0,0,-99.99,,,0.00,weatherlink.com 1.10,2013-02-13 19:35:00,
2013-02-13 11:50:00,57.5,-43.0,30.34,WSW,250,4.0,-999.0,1,-99.99,,,0.00,weatherlink.com 1.10,2013-02-13 19:50:00,
2013-02-13 12:05:00,57.7,15.0,30.33,WSW,239,3.0,-999.0,19,-99.99,,,0.00,weatherlink.com 1.10,2013-02-13 20:05:00,
2013-02-13 12:20:00,58.8,22.0,30.31,SSW,196,5.0,-999.0,24,-99.99,,,0.00,weatherlink.com 1.10,2013-02-13 20:20:00,
2013-02-13 12:35:00,59.3,23.0,30.31,WSW,254,3.0,-999.0,25,-99.99,,,0.00,weatherlink.com 1.10,2013-02-13 20:35:00,
2013-02-13 12:50:00,60.4,29.0,30.30,WSW,245,2.0,-999.0,30,-99.99,,,0.00,weatherlink.com 1.10,2013-02-13 20:50:00,
2013-02-13 13:05:00,58.8,28.0,30.30,SW,221,4.0,-999.0,31,-99.99,,,0.00,weatherlink.com 1.10,2013-02-13 21:05:00,
2013-02-13 13:20:00,59.6,23.0,30.30,West,266,3.0,-999.0,24,-99.99,,,0.00,weatherlink.com 1.10,2013-02-13 21:20:00,
2013-02-13 13:35:00,59.3,28.0,30.29,SW,225,5.0,-999.0,30,-99.99,,,0.00,weatherlink.com 1.10,2013-02-13 21:35:00,
2013-02-13 13:50:00,58.9,11.0,30.28,SW,235,5.0,-999.0,15,-99.99,,,0.00,weatherlink.com 1.10,2013-02-13 21:50:00,
2013-02-13 14:05:00,59.8,-5.0,30.28,SW,229,3.0,-999.0,7,-99.99,,,0.00,weatherlink.com 1.10,2013-02-13 22:05:00,
2013-02-13 14:20:00,60.9,16.0,30.26,WSW,248,2.0,-999.0,17,-99.99,,,0.00,weatherlink.com 1.10,2013-02-13 22:20:00,
2013-02-13 14:35:00,60.6,14.0,30.26,South,182,3.0,-999.0,16,-99.99,,,0.00,weatherlink.com 1.10,2013-02-13 22:35:00,
2013-02-13 14:50:00,59.2,-5.0,30.25,SW,227,0.0,-999.0,7,-99.99,,,0.00,weatherlink.com 1.10,2013-02-13 22:50:00,
2013-02-13 15:05:00,61.7,18.0,30.25,SW,231,3.0,-999.0,18,-99.99,,,0.00,weatherlink.com 1.10,2013-02-13 23:05:00,
2013-02-13 15:20:00,62.5,24.0,30.24,WNW,286,4.0,-999.0,23,-99.99,,,0.00,weatherlink.com 1.10,2013-02-13 23:20:00,
2013-02-13 15:35:00,62.0,19.0,30.24,West,276,3.0,-999.0,19,-99.99,,,0.00,weatherlink.com 1.10,2013-02-13 23:35:00,
2013-02-13 15:50:00,62.2,22.0,30.23,WNW,288,2.0,-999.0,21,-99.99,,,0.00,weatherlink.com 1.10,2013-02-13 23:50:00,
2013-02-13 16:05:00,62.6,21.0,30.23,WNW,282,0.0,-999.0,20,-99.99,,,0.00,weatherlink.com 1.10,2013-02-14 00:05:00,
2013-02-13 16:20:00,62.4,22.0,30.22,SW,229,0.0,-999.0,21,-99.99,,,0.00,weatherlink.com 1.10,2013-02-14 00:20:00,
2013-02-13 16:35:00,61.1,14.0,30.21,SW,234,0.0,-999.0,16,-99.99,,,0.00,weatherlink.com 1.10,2013-02-14 00:35:00,
2013-02-13 16:50:00,59.7,3.0,30.21,SW,234,0.0,-999.0,10,-99.99,,,0.00,weatherlink.com 1.10,2013-02-14 00:50:00,
2013-02-13 17:05:00,59.0,-9.0,30.21,SW,234,0.0,-999.0,6,-99.99,,,0.00,weatherlink.com 1.10,2013-02-14 01:05:00,
2013-02-13 17:20:00,58.0,-99.9,30.21,SW,230,0.0,-999.0,0,-99.99,,,0.00,weatherlink.com 1.10,2013-02-14 01:20:00,
2013-02-13 17:35:00,57.0,-99.9,30.21,SW,230,0.0,-999.0,0,-99.99,,,0.00,weatherlink.com 1.10,2013-02-14 01:35:00,
2013-02-13 17:50:00,55.7,-99.9,30.21,SW,230,0.0,-999.0,0,-99.99,,,0.00,weatherlink.com 1.10,2013-02-14 01:50:00,
2013-02-13 18:05:00,54.2,-99.9,30.21,ENE,67,2.0,-999.0,0,-99.99,,,0.00,weatherlink.com 1.10,2013-02-14 02:05:00,
2013-02-13 18:20:00,52.9,-99.9,30.21,NE,43,1.0,-999.0,0,-99.99,,,0.00,weatherlink.com 1.10,2013-02-14 02:20:00,
2013-02-13 18:35:00,52.1,-99.9,30.21,NE,50,3.0,-999.0,0,-99.99,,,0.00,weatherlink.com 1.10,2013-02-14 02:35:00,
2013-02-13 18:50:00,51.6,-99.9,30.21,NE,56,3.0,-999.0,0,-99.99,,,0.00,weatherlink.com 1.10,2013-02-14 02:50:00,
2013-02-13 19:05:00,51.3,-99.9,30.21,ENE,59,3.0,-999.0,0,-99.99,,,0.00,weatherlink.com 1.10,2013-02-14 03:05:00,
2013-02-13 19:20:00,50.7,-99.9,30.21,NE,40,2.0,-999.0,0,-99.99,,,0.00,weatherlink.com 1.10,2013-02-14 03:20:00,
2013-02-13 19:35:00,50.1,-99.9,30.21,ENE,70,0.0,-999.0,0,-99.99,,,0.00,weatherlink.com 1.10,2013-02-14 03:35:00,
2013-02-13 19:50:00,49.4,-99.9,30.21,NE,55,2.0,-999.0,0,-99.99,,,0.00,weatherlink.com 1.10,2013-02-14 03:50:00,
2013-02-13 20:05:00,49.2,-99.9,30.21,North,10,3.0,-999.0,0,-99.99,,,0.00,weatherlink.com 1.10,2013-02-14 04:05:00,
2013-02-13 20:20:00,48.8,-99.9,30.21,ENE,65,9.0,-999.0,0,-99.99,,,0.00,weatherlink.com 1.10,2013-02-14 04:20:00,
2013-02-13 20:50:00,48.3,-99.9,30.22,ENE,57,3.0,-999.0,0,-99.99,,,0.00,weatherlink.com 1.10,2013-02-14 04:50:00,
2013-02-13 21:05:00,48.1,-99.9,30.21,ENE,58,2.0,-999.0,0,-99.99,,,0.00,weatherlink.com 1.10,2013-02-14 05:05:00,
2013-02-13 21:20:00,47.8,-99.9,30.22,NE,47,4.0,-999.0,0,-99.99,,,0.00,weatherlink.com 1.10,2013-02-14 05:20:00,
2013-02-13 21:35:00,47.8,-99.9,30.21,NE,48,8.0,-999.0,0,-99.99,,,0.00,weatherlink.com 1.10,2013-02-14 05:35:00,
2013-02-13 21:50:00,47.8,-99.9,30.22,ENE,67,7.0,-999.0,0,-99.99,,,0.00,weatherlink.com 1.10,2013-02-14 05:50:00,
2013-02-13 22:05:00,47.3,-99.9,30.22,ENE,57,8.0,-999.0,0,-99.99,,,0.00,weatherlink.com 1.10,2013-02-14 06:05:00,
2013-02-13 22:20:00,47.5,-99.9,30.22,NE,41,9.0,-999.0,0,-99.99,,,0.00,weatherlink.com 1.10,2013-02-14 06:20:00,
2013-02-13 22:35:00,47.3,-99.9,30.22,NE,37,3.0,-999.0,0,-99.99,,,0.00,weatherlink.com 1.10,2013-02-14 06:35:00,
2013-02-13 22:50:00,46.8,-99.9,30.22,ENE,69,6.0,-999.0,0,-99.99,,,0.00,weatherlink.com 1.10,2013-02-14 06:50:00,
2013-02-13 23:05:00,46.0,-99.9,30.22,ENE,57,7.0,-999.0,0,-99.99,,,0.00,weatherlink.com 1.10,2013-02-14 07:05:00,
2013-02-13 23:20:00,46.6,-99.9,30.22,ENE,65,9.0,-999.0,0,-99.99,,,0.00,weatherlink.com 1.10,2013-02-14 07:20:00,
2013-02-13 23:35:00,46.4,-99.9,30.21,ENE,70,6.0,-999.0,0,-99.99,,,0.00,weatherlink.com 1.10,2013-02-14 07:35:00,
2013-02-13 23:50:00,45.7,-99.9,30.22,NE,56,7.0,-999.0,0,-99.99,,,0.00,weatherlink.com 1.10,2013-02-14 07:50:00,